Aérodrome :
LOGIN :

S'inscrire | Disclaimer

   EN    FR    IT 

 










Légende :    VFR   VFR Marginal   IFR   IFR Intensif   IFR Très Intensif
Visi : 
Plafond : 
>= 8 km
>= 3000ft
5 à 8 km
1000 à 3000 ft
1500m à 5 km
500 à 1000 ft
800 à 1500m
200 à 500 ft
< 800m
< 200 ft
Symboles :   Orages  Brouillard  Fortes neiges  Fortes précipitations  Vent > 20 kt
SIGMETs :   Divers  Orages  Givrage  Turbulence  Onde Orograph.  Cendres Volcan.






- Altitude de l'aérodrome : 309 ft
- Code IATA : FNI


LFTW - Nîmes Garons

DERNIER METAR :
  • 202130Z AUTO 17015KT 130V210 9999 -RA SCT008/// OVC013/// ///TCU 11/10 Q1008

METARs EXPIRÉS :
  • 202100Z AUTO 14018KT 9999 -RA BKN014/// OVC021/// ///TCU 11/10 Q1008
  • 202030Z AUTO 14023G34KT 9999 -RA BKN019/// BKN027/// BKN032/// ///TCU 11/09 Q1008
  • 202000Z AUTO 14022G34KT 9999 -RA BKN020/// BKN034/// OVC040/// ///TCU 12/08 Q1008
  • 201930Z AUTO 15018G29KT 9999 BKN017/// OVC025/// ///TCU 12/08 Q1008
  • 201900Z AUTO 14022G32KT 9999 BKN015 OVC052 12/09 Q1009 TEMPO RA BKN010 FEW030TCU

TAF TAF LFTW
Valide du 20 à 15h jusqu'au 21 à 15h UTC


201400Z 2015/2115 14015G25KT 9999 BKN020 BKN028
TEMPO 2015/2024 09025G40KT
PROB40
TEMPO 2018/2024 RA BKN010 FEW030TCU
BECMG 2102/2105 09010KT BKN010 BKN020



MET'MAP, la Météo Aéronautique d'un coup d'oeil ! - Copyright ORBIFLY Décembre 2007 - Disclaimer

ORBIFLY MET'MAP TEAM :

Programmation & Développement : Alexandra Zaïnal
Sur une idée originale de : Baudouin d'Aumeries
Assistance à la programmation : Marc-Olivier Méhu
Soutien technique & logistique : Manuel Goepfert

Contact : metmap@orbifly.com




SOURCES & CREDITS :

   NOAA